createdAt,value
2022-08-02T00:01:03.424Z,50.17
2022-08-02T00:03:05.612Z,50.15
2022-08-02T00:05:08.139Z,50.16
2022-08-02T00:07:17.433Z,50.55
2022-08-02T00:09:19.470Z,50.69
2022-08-02T00:11:23.549Z,50.60
2022-08-02T00:13:25.442Z,50.73
2022-08-02T00:15:27.672Z,50.73
2022-08-02T00:17:29.831Z,50.85
2022-08-02T00:19:31.898Z,51.05
2022-08-02T00:21:34.148Z,51.14
2022-08-02T00:24:03.344Z,51.22
2022-08-02T00:25:59.027Z,51.87
2022-08-02T00:28:01.060Z,51.67
2022-08-02T00:30:02.943Z,51.94
2022-08-02T00:32:05.316Z,51.95
2022-08-02T00:34:30.450Z,51.81
2022-08-02T00:36:29.634Z,51.88
2022-08-02T00:38:31.582Z,52.12
2022-08-02T00:40:33.754Z,52.24
2022-08-02T00:42:35.722Z,52.21
2022-08-02T00:44:37.815Z,52.28
2022-08-02T00:46:40.025Z,52.16
2022-08-02T00:48:43.222Z,52.21
2022-08-02T00:50:45.262Z,52.25
2022-08-02T00:52:47.363Z,52.37
2022-08-02T00:54:49.616Z,52.32
2022-08-02T00:56:51.717Z,52.27
2022-08-02T00:58:53.784Z,52.45
2022-08-02T01:00:57.812Z,52.44
2022-08-02T01:03:04.289Z,52.78
2022-08-02T01:05:09.406Z,52.93
2022-08-02T01:07:15.951Z,52.83
2022-08-02T01:09:18.301Z,52.71
2022-08-02T01:11:20.993Z,52.65
2022-08-02T01:13:23.072Z,52.74
2022-08-02T01:15:36.019Z,52.79
2022-08-02T01:18:03.144Z,53.08
2022-08-02T01:20:46.396Z,53.22
2022-08-02T01:23:16.685Z,53.15
2022-08-02T01:25:56.376Z,53.24
2022-08-02T01:28:35.991Z,53.61
2022-08-02T01:30:41.026Z,53.50
2022-08-02T01:32:49.664Z,53.29
2022-08-02T01:35:00.053Z,53.55
2022-08-02T01:37:20.652Z,53.64
2022-08-02T01:39:31.795Z,54.06
2022-08-02T01:41:35.371Z,54.16
2022-08-02T01:43:40.521Z,53.98
2022-08-02T01:45:44.895Z,54.32
2022-08-02T01:47:48.318Z,54.27
2022-08-02T01:49:53.282Z,54.17
2022-08-02T01:52:15.397Z,54.61
2022-08-02T01:54:19.834Z,54.50
2022-08-02T01:56:22.720Z,54.50
2022-08-02T01:58:31.547Z,54.56
2022-08-02T02:00:40.254Z,54.32
2022-08-02T02:02:48.254Z,54.35
2022-08-02T02:04:52.496Z,54.41
2022-08-02T02:07:03.318Z,54.49
2022-08-02T02:09:07.266Z,54.67
2022-08-02T02:12:11.680Z,54.64
2022-08-02T02:13:33.852Z,54.64
2022-08-02T02:15:42.499Z,54.93
2022-08-02T02:18:12.630Z,55.12
2022-08-02T02:20:18.974Z,55.11
2022-08-02T02:22:21.093Z,55.29
2022-08-02T02:24:25.984Z,55.29
2022-08-02T02:26:31.807Z,55.44
2022-08-02T02:28:37.555Z,55.63
2022-08-02T02:30:43.344Z,55.84
2022-08-02T02:32:47.932Z,55.96
2022-08-02T02:34:51.877Z,56.16
2022-08-02T02:36:59.819Z,56.36
2022-08-02T02:39:04.530Z,56.21
2022-08-02T02:41:19.211Z,56.38
2022-08-02T02:43:22.852Z,56.36
2022-08-02T02:45:26.452Z,56.46
2022-08-02T02:47:40.792Z,56.60
2022-08-02T02:49:46.272Z,57.16
2022-08-02T02:51:48.849Z,57.32
2022-08-02T02:54:30.250Z,57.31
2022-08-02T02:56:16.561Z,57.35
2022-08-02T02:58:18.981Z,57.49
2022-08-02T03:00:49.275Z,57.39
2022-08-02T03:02:51.527Z,57.74
2022-08-02T03:04:57.957Z,58.03
2022-08-02T03:07:09.928Z,58.22
2022-08-02T03:09:12.066Z,58.42
2022-08-02T03:11:14.200Z,58.59
2022-08-02T03:13:17.618Z,58.49
2022-08-02T03:15:21.380Z,58.65
2022-08-02T03:17:23.204Z,59.07
2022-08-02T03:19:25.015Z,59.23
2022-08-02T03:21:35.164Z,59.31
2022-08-02T03:23:36.982Z,59.33
2022-08-02T03:25:38.819Z,59.49
2022-08-02T03:27:40.826Z,59.66
2022-08-02T03:29:42.692Z,59.92
2022-08-02T03:31:46.960Z,59.70
2022-08-02T03:33:49.571Z,60.02
2022-08-02T03:35:54.263Z,59.94
2022-08-02T03:37:57.853Z,59.98
2022-08-02T03:40:00.561Z,60.37
2022-08-02T03:42:02.546Z,60.42
2022-08-02T03:44:07.194Z,60.24
2022-08-02T03:46:10.034Z,60.31
2022-08-02T03:48:33.777Z,60.18
2022-08-02T03:50:37.733Z,60.43
2022-08-02T03:52:45.618Z,60.77
2022-08-02T03:54:47.538Z,60.73
2022-08-02T03:56:49.729Z,60.74
2022-08-02T03:59:05.918Z,60.56
2022-08-02T04:01:08.014Z,60.62
2022-08-02T04:03:09.881Z,60.78
2022-08-02T04:05:13.617Z,60.73
2022-08-02T04:07:15.622Z,60.64
2022-08-02T04:09:37.540Z,60.90
2022-08-02T04:11:39.460Z,60.83
2022-08-02T04:13:42.120Z,61.21
2022-08-02T04:15:44.902Z,61.46
2022-08-02T04:17:52.411Z,61.79
2022-08-02T04:19:58.827Z,62.38
2022-08-02T04:22:05.010Z,62.54
2022-08-02T04:24:10.995Z,62.41
2022-08-02T04:26:13.950Z,62.68
2022-08-02T04:28:27.507Z,63.09
2022-08-02T04:30:30.864Z,62.81
2022-08-02T04:32:33.364Z,63.10
2022-08-02T04:34:35.687Z,63.31
2022-08-02T04:36:38.694Z,63.30
2022-08-02T04:38:41.959Z,63.66
2022-08-02T04:40:55.536Z,63.95
2022-08-02T04:42:57.599Z,64.29
2022-08-02T04:44:59.563Z,64.30
2022-08-02T04:47:06.881Z,64.53
2022-08-02T04:49:09.359Z,64.68
2022-08-02T04:51:12.159Z,64.71
2022-08-02T04:53:14.159Z,64.54
2022-08-02T04:55:15.849Z,64.90
2022-08-02T04:57:36.887Z,64.78
2022-08-02T04:59:38.590Z,64.84
2022-08-02T05:01:42.450Z,65.02
2022-08-02T05:03:44.313Z,64.88
2022-08-02T05:05:48.606Z,64.96
2022-08-02T05:07:50.300Z,65.14
2022-08-02T05:09:51.988Z,65.02
2022-08-02T05:11:55.200Z,65.12
2022-08-02T05:13:57.992Z,65.04
2022-08-02T05:16:03.152Z,65.99
2022-08-02T05:18:05.077Z,66.04
2022-08-02T05:20:07.207Z,66.70
2022-08-02T05:22:09.282Z,67.01
2022-08-02T05:24:11.342Z,66.81
2022-08-02T05:26:13.045Z,67.03
2022-08-02T05:28:18.544Z,67.18
2022-08-02T05:30:20.901Z,67.35
2022-08-02T05:32:23.876Z,67.76
2022-08-02T05:34:27.660Z,67.79
2022-08-02T05:36:29.775Z,67.69
2022-08-02T05:38:32.519Z,67.80
2022-08-02T05:40:54.403Z,67.85
2022-08-02T05:42:57.095Z,67.69
2022-08-02T05:44:59.181Z,67.68
2022-08-02T05:47:00.909Z,67.64
2022-08-02T05:49:04.592Z,67.63
2022-08-02T05:51:16.930Z,67.82
2022-08-02T05:53:34.958Z,67.43
2022-08-02T05:55:47.548Z,67.87
2022-08-02T05:58:20.786Z,68.01
2022-08-02T06:00:22.913Z,68.00
2022-08-02T06:02:43.846Z,68.24
2022-08-02T06:05:11.212Z,68.07
2022-08-02T06:07:15.587Z,67.93
2022-08-02T06:09:23.170Z,68.20
2022-08-02T06:11:38.202Z,68.00
2022-08-02T06:13:42.131Z,67.70
2022-08-02T06:15:52.871Z,67.84
2022-08-02T06:17:57.857Z,68.12
2022-08-02T06:20:00.944Z,67.82
2022-08-02T06:22:34.891Z,67.66
2022-08-02T06:24:37.050Z,67.54
2022-08-02T06:26:39.447Z,67.78
2022-08-02T06:28:41.693Z,67.63
2022-08-02T06:30:44.782Z,67.59
2022-08-02T06:32:50.717Z,67.26
2022-08-02T06:34:52.407Z,67.50
2022-08-02T06:37:14.563Z,67.37
2022-08-02T06:39:35.916Z,67.33
2022-08-02T06:41:43.614Z,67.33
2022-08-02T06:44:19.502Z,67.05
2022-08-02T06:46:57.306Z,67.22
2022-08-02T06:48:45.406Z,67.74
2022-08-02T06:50:47.190Z,67.59
2022-08-02T06:52:48.890Z,67.52
2022-08-02T06:54:50.571Z,67.61
2022-08-02T06:56:52.333Z,67.97
2022-08-02T06:58:54.045Z,67.77
2022-08-02T07:00:55.948Z,67.52
2022-08-02T07:02:58.079Z,67.40
2022-08-02T07:05:00.096Z,67.46
2022-08-02T07:07:01.924Z,67.16
2022-08-02T07:09:21.027Z,67.11
2022-08-02T07:11:24.175Z,67.06
2022-08-02T07:13:25.887Z,67.08
2022-08-02T07:15:27.710Z,66.96
2022-08-02T07:17:30.307Z,66.82
2022-08-02T07:19:37.971Z,66.79
2022-08-02T07:21:56.678Z,66.61
2022-08-02T07:24:01.730Z,66.29
2022-08-02T07:26:05.336Z,65.89
2022-08-02T07:28:24.040Z,65.73
2022-08-02T07:30:26.134Z,65.53
2022-08-02T07:32:32.052Z,65.27
2022-08-02T07:34:33.777Z,65.15
2022-08-02T07:36:35.470Z,64.88
2022-08-02T07:38:37.685Z,64.66
2022-08-02T07:40:39.401Z,64.37
2022-08-02T07:42:43.734Z,64.78
2022-08-02T07:44:49.080Z,64.30
2022-08-02T07:46:51.010Z,63.89
2022-08-02T07:48:55.583Z,64.22
2022-08-02T07:50:57.514Z,64.15
2022-08-02T07:52:59.226Z,64.05
2022-08-02T07:55:01.342Z,64.03
2022-08-02T07:57:03.743Z,64.30
2022-08-02T07:59:05.498Z,64.11
2022-08-02T08:01:08.671Z,63.97
2022-08-02T08:03:10.539Z,64.37
2022-08-02T08:05:12.498Z,63.94
2022-08-02T08:07:14.242Z,64.13
2022-08-02T08:09:15.935Z,63.90
2022-08-02T08:11:17.606Z,63.75
2022-08-02T08:13:19.309Z,63.59
2022-08-02T08:15:21.694Z,63.37
2022-08-02T08:17:23.969Z,63.22
2022-08-02T08:19:50.063Z,63.05
2022-08-02T08:21:48.296Z,63.01
2022-08-02T08:23:50.495Z,62.84
2022-08-02T08:25:52.250Z,62.60
2022-08-02T08:27:53.987Z,62.42
2022-08-02T08:29:55.883Z,62.11
2022-08-02T08:31:57.880Z,62.14
2022-08-02T08:33:59.975Z,62.11
2022-08-02T08:36:02.666Z,62.00
2022-08-02T08:38:07.643Z,61.59
2022-08-02T08:40:11.426Z,61.23
2022-08-02T08:42:13.462Z,61.09
2022-08-02T08:44:15.465Z,61.30
2022-08-02T08:46:28.200Z,61.14
2022-08-02T08:48:33.204Z,60.92
2022-08-02T08:50:39.748Z,61.01
2022-08-02T08:53:08.218Z,60.66
2022-08-02T08:55:14.690Z,60.58
2022-08-02T08:57:18.168Z,60.58
2022-08-02T08:59:19.898Z,60.53
2022-08-02T09:01:21.868Z,60.42
2022-08-02T09:03:23.653Z,60.32
2022-08-02T09:05:25.593Z,60.26
2022-08-02T09:07:28.544Z,60.38
2022-08-02T09:09:30.276Z,60.41
2022-08-02T09:11:32.011Z,60.17
2022-08-02T09:13:44.922Z,59.92
2022-08-02T09:16:10.883Z,59.91
2022-08-02T09:18:20.641Z,59.85
2022-08-02T09:20:22.581Z,59.96
2022-08-02T09:22:24.240Z,60.16
2022-08-02T09:24:25.974Z,59.89
2022-08-02T09:26:33.574Z,60.14
2022-08-02T09:28:37.435Z,60.27
2022-08-02T09:30:43.205Z,60.41
2022-08-02T09:32:46.656Z,60.43
2022-08-02T09:34:53.889Z,60.33
2022-08-02T09:36:55.612Z,60.15
2022-08-02T09:39:04.607Z,60.03
2022-08-02T09:41:19.968Z,59.87
2022-08-02T09:43:21.987Z,59.56
2022-08-02T09:45:30.625Z,59.36
2022-08-02T09:47:37.168Z,58.87
2022-08-02T09:49:50.311Z,58.86
2022-08-02T09:51:57.073Z,58.63
2022-08-02T09:54:08.301Z,58.71
2022-08-02T09:56:29.192Z,58.64
2022-08-02T09:58:38.484Z,58.69
2022-08-02T10:00:55.601Z,58.55
2022-08-02T10:03:21.367Z,58.30
2022-08-02T10:05:30.291Z,58.33
2022-08-02T10:07:41.489Z,58.58
2022-08-02T10:09:47.686Z,58.50
2022-08-02T10:11:50.051Z,58.65
2022-08-02T10:13:53.206Z,58.69
2022-08-02T10:15:56.942Z,58.67
2022-08-02T10:17:58.942Z,58.68
2022-08-02T10:20:04.691Z,58.49
2022-08-02T10:22:11.925Z,58.50
2022-08-02T10:24:17.940Z,58.50
2022-08-02T10:26:20.942Z,58.73
2022-08-02T10:28:31.641Z,58.57
2022-08-02T10:30:35.735Z,58.50
2022-08-02T10:32:43.418Z,58.29
2022-08-02T10:35:19.606Z,58.28
2022-08-02T10:37:33.725Z,58.10
2022-08-02T10:39:45.686Z,57.89
2022-08-02T10:41:51.946Z,57.94
2022-08-02T10:43:54.388Z,57.72
2022-08-02T10:46:32.421Z,57.37
2022-08-02T10:51:53.115Z,56.83
2022-08-02T10:54:10.244Z,56.64
2022-08-02T10:56:12.172Z,56.69
2022-08-02T10:58:26.337Z,56.49
2022-08-02T11:00:31.337Z,56.34
2022-08-02T11:02:53.936Z,56.13
2022-08-02T11:04:55.571Z,56.39
2022-08-02T11:07:18.337Z,56.26
2022-08-02T11:09:31.975Z,56.30
2022-08-02T11:12:05.277Z,55.97
2022-08-02T11:14:08.892Z,55.93
2022-08-02T11:16:12.024Z,55.88
2022-08-02T11:18:22.308Z,55.94
2022-08-02T11:20:26.568Z,55.88
2022-08-02T11:22:28.525Z,55.96
2022-08-02T11:24:35.474Z,56.00
2022-08-02T11:26:37.160Z,56.38
2022-08-02T11:28:39.026Z,56.50
2022-08-02T11:30:40.811Z,56.65
2022-08-02T11:32:43.067Z,56.86
2022-08-02T11:34:47.042Z,57.19
2022-08-02T11:36:50.990Z,57.17
2022-08-02T11:39:11.839Z,57.07
2022-08-02T11:41:46.493Z,57.27
2022-08-02T11:43:43.517Z,57.45
2022-08-02T11:45:45.289Z,57.31
2022-08-02T11:47:47.204Z,57.20
2022-08-02T11:49:48.945Z,57.35
2022-08-02T11:51:55.881Z,56.76
2022-08-02T11:53:57.811Z,56.99
2022-08-02T11:56:00.347Z,56.72
2022-08-02T11:58:07.984Z,56.82
2022-08-02T12:00:17.209Z,56.81
2022-08-02T12:02:20.974Z,56.80
2022-08-02T12:04:23.701Z,56.95
2022-08-02T12:06:31.241Z,56.86
2022-08-02T12:08:36.743Z,56.96
2022-08-02T12:10:48.200Z,56.95
2022-08-02T12:12:51.691Z,56.51
2022-08-02T12:14:53.904Z,56.05
2022-08-02T12:17:15.106Z,56.08
2022-08-02T12:19:19.616Z,55.95
2022-08-02T12:21:25.591Z,55.81
2022-08-02T12:23:28.128Z,55.32
2022-08-02T12:25:34.205Z,54.58
2022-08-02T12:27:42.276Z,54.83
2022-08-02T12:29:57.961Z,54.60
2022-08-02T12:32:01.472Z,54.36
2022-08-02T12:34:15.143Z,54.55
2022-08-02T12:36:27.103Z,54.04
2022-08-02T12:38:28.798Z,53.74
2022-08-02T12:40:32.738Z,53.22
2022-08-02T12:43:05.374Z,53.07
2022-08-02T12:45:07.469Z,52.93
2022-08-02T12:47:09.874Z,53.43
2022-08-02T12:49:19.824Z,53.44
2022-08-02T12:51:54.845Z,53.49
2022-08-02T12:54:00.049Z,53.80
2022-08-02T12:56:03.930Z,53.69
2022-08-02T12:58:05.875Z,53.74
2022-08-02T13:00:09.758Z,54.01
2022-08-02T13:02:13.624Z,53.98
2022-08-02T13:04:16.578Z,53.98
2022-08-02T13:08:41.662Z,53.55
2022-08-02T13:10:43.947Z,53.73
2022-08-02T13:12:46.102Z,53.76
2022-08-02T13:14:47.951Z,53.32
2022-08-02T13:16:49.771Z,52.84
2022-08-02T13:18:51.487Z,52.60
2022-08-02T13:20:53.259Z,52.88
2022-08-02T13:22:55.718Z,52.86
2022-08-02T13:25:06.286Z,52.99
2022-08-02T13:27:09.208Z,53.13
2022-08-02T13:29:12.565Z,53.01
2022-08-02T13:31:35.460Z,52.69
2022-08-02T13:33:36.715Z,52.21
2022-08-02T13:35:38.617Z,52.33
2022-08-02T13:37:41.969Z,52.07
2022-08-02T13:40:00.069Z,51.82
2022-08-02T13:42:06.058Z,52.07
2022-08-02T13:44:10.803Z,51.98
2022-08-02T13:46:13.195Z,52.44
2022-08-02T13:48:23.890Z,52.18
2022-08-02T13:50:25.609Z,52.13
2022-08-02T13:52:30.462Z,51.92
2022-08-02T13:54:32.443Z,52.00
2022-08-02T13:56:35.864Z,51.97
2022-08-02T13:58:38.127Z,52.06
2022-08-02T14:00:40.293Z,52.45
2022-08-02T14:02:41.972Z,51.95
2022-08-02T14:04:44.049Z,52.05
2022-08-02T14:06:45.753Z,51.41
2022-08-02T14:08:47.806Z,51.47
2022-08-02T14:10:50.918Z,51.34
2022-08-02T14:12:56.365Z,51.34
2022-08-02T14:14:58.446Z,51.14
2022-08-02T14:17:00.191Z,50.88
2022-08-02T14:19:05.467Z,50.30
2022-08-02T14:21:12.514Z,50.91
2022-08-02T14:23:14.718Z,51.15
2022-08-02T14:25:16.832Z,50.92
2022-08-02T14:27:18.685Z,50.60
2022-08-02T14:29:20.420Z,50.33
2022-08-02T14:31:22.702Z,50.54
2022-08-02T14:33:24.419Z,50.82
2022-08-02T14:35:26.285Z,51.27
2022-08-02T14:37:27.991Z,51.32
2022-08-02T14:39:42.961Z,51.28
2022-08-02T14:41:59.007Z,51.57
2022-08-02T14:44:05.785Z,50.93
2022-08-02T14:46:07.560Z,51.26
2022-08-02T14:48:26.885Z,50.56
2022-08-02T14:50:28.796Z,50.10
2022-08-02T14:52:30.594Z,49.94
2022-08-02T14:54:33.917Z,49.44
2022-08-02T14:56:35.711Z,48.89
2022-08-02T14:58:37.448Z,48.76
2022-08-02T15:00:41.472Z,48.62
2022-08-02T15:02:43.487Z,49.14
2022-08-02T15:04:45.169Z,48.92
2022-08-02T15:06:47.342Z,48.86
2022-08-02T15:08:49.196Z,49.28
2022-08-02T15:10:50.970Z,49.31
2022-08-02T15:12:52.718Z,49.05
2022-08-02T15:14:54.460Z,49.16
2022-08-02T15:16:58.426Z,49.30
2022-08-02T15:19:00.414Z,49.52
2022-08-02T15:21:03.119Z,49.80
2022-08-02T15:23:18.039Z,50.83
2022-08-02T15:25:20.170Z,51.24
2022-08-02T15:27:21.886Z,51.21
2022-08-02T15:29:23.651Z,51.39
2022-08-02T15:31:33.276Z,51.42
2022-08-02T15:33:35.561Z,51.42
2022-08-02T15:35:37.325Z,51.67
2022-08-02T15:37:41.486Z,51.93
2022-08-02T15:39:43.960Z,52.15
2022-08-02T15:41:45.688Z,52.11
2022-08-02T15:44:00.119Z,51.91
2022-08-02T15:46:03.625Z,52.38
2022-08-02T15:48:05.930Z,52.58
2022-08-02T15:50:07.986Z,52.70
2022-08-02T15:52:12.748Z,52.94
2022-08-02T15:54:14.712Z,52.93
2022-08-02T15:56:16.404Z,53.14
2022-08-02T15:58:24.016Z,53.00
2022-08-02T16:00:26.005Z,53.26
2022-08-02T16:02:27.705Z,53.50
2022-08-02T16:04:29.523Z,53.62
2022-08-02T16:06:31.519Z,53.90
2022-08-02T16:08:33.781Z,54.10
2022-08-02T16:10:35.682Z,53.91
2022-08-02T16:12:38.049Z,53.67
2022-08-02T16:14:39.816Z,53.54
2022-08-02T16:16:41.573Z,53.77
2022-08-02T16:18:43.423Z,53.72
2022-08-02T16:20:45.134Z,53.94
2022-08-02T16:22:46.841Z,53.96
2022-08-02T16:24:48.607Z,53.92
2022-08-02T16:26:50.374Z,54.41
2022-08-02T16:28:55.961Z,54.69
2022-08-02T16:31:10.451Z,54.68
2022-08-02T16:33:13.287Z,55.08
2022-08-02T16:35:15.314Z,54.90
2022-08-02T16:37:17.035Z,54.39
2022-08-02T16:39:18.704Z,54.14
2022-08-02T16:41:20.641Z,53.73
2022-08-02T16:43:22.438Z,52.89
2022-08-02T16:45:24.189Z,52.85
2022-08-02T16:47:42.802Z,52.85
2022-08-02T16:50:04.814Z,52.64
2022-08-02T16:52:09.874Z,52.66
2022-08-02T16:54:13.115Z,52.58
2022-08-02T16:56:15.091Z,52.77
2022-08-02T16:58:24.488Z,52.78
2022-08-02T17:00:27.352Z,53.05
2022-08-02T17:02:29.038Z,52.51
2022-08-02T17:04:30.961Z,52.61
2022-08-02T17:06:34.932Z,52.37
2022-08-02T17:08:38.125Z,52.11
2022-08-02T17:10:56.129Z,51.91
2022-08-02T17:13:11.647Z,52.08
2022-08-02T17:16:07.747Z,51.68
2022-08-02T17:17:37.372Z,51.54
2022-08-02T17:19:42.539Z,51.37
2022-08-02T17:21:44.251Z,51.19
2022-08-02T17:23:47.023Z,51.58
2022-08-02T17:26:07.930Z,51.67
2022-08-02T17:28:21.735Z,51.43
2022-08-02T17:30:33.804Z,51.64
2022-08-02T17:32:35.577Z,51.45
2022-08-02T17:34:38.149Z,51.63
2022-08-02T17:36:40.052Z,51.12
2022-08-02T17:38:50.107Z,51.37
2022-08-02T17:40:56.680Z,51.21
2022-08-02T17:42:58.469Z,50.99
2022-08-02T17:45:07.144Z,51.14
2022-08-02T17:47:18.747Z,51.13
2022-08-02T17:49:23.091Z,51.11
2022-08-02T17:52:15.374Z,51.41
2022-08-02T17:53:46.709Z,51.78
2022-08-02T17:55:51.484Z,51.49
2022-08-02T17:57:57.740Z,51.82
2022-08-02T18:00:04.263Z,52.20
2022-08-02T18:02:06.423Z,52.11
2022-08-02T18:04:10.066Z,52.58
2022-08-02T18:06:12.454Z,52.69
2022-08-02T18:10:42.374Z,53.03
2022-08-02T18:12:46.302Z,53.32
2022-08-02T18:14:49.173Z,53.19
2022-08-02T18:16:51.346Z,53.00
2022-08-02T18:18:53.040Z,52.94
2022-08-02T18:20:54.820Z,53.01
2022-08-02T18:22:58.523Z,52.98
2022-08-02T18:25:00.778Z,53.50
2022-08-02T18:27:11.172Z,53.50
2022-08-02T18:29:12.869Z,53.63
2022-08-02T18:31:22.727Z,53.33
2022-08-02T18:33:55.093Z,53.48
2022-08-02T18:35:47.478Z,53.30
2022-08-02T18:37:56.766Z,53.32
2022-08-02T18:40:02.701Z,53.70
2022-08-02T18:42:04.560Z,53.67
2022-08-02T18:44:06.990Z,53.72
2022-08-02T18:46:16.140Z,53.56
2022-08-02T18:48:20.024Z,53.88
2022-08-02T18:50:23.677Z,53.46
2022-08-02T18:52:31.264Z,53.70
2022-08-02T18:54:34.204Z,53.82
2022-08-02T18:56:39.052Z,53.77
2022-08-02T18:58:41.386Z,53.93
2022-08-02T19:00:44.164Z,54.26
2022-08-02T19:02:48.804Z,54.46
2022-08-02T19:04:50.637Z,54.47
2022-08-02T19:06:52.382Z,54.41
2022-08-02T19:09:03.576Z,54.53
2022-08-02T19:11:12.075Z,54.55
2022-08-02T19:13:17.603Z,54.61
2022-08-02T19:15:35.573Z,54.76
2022-08-02T19:17:55.276Z,54.92
2022-08-02T19:19:58.798Z,54.97
2022-08-02T19:22:26.886Z,54.96
2022-08-02T19:24:22.698Z,54.86
2022-08-02T19:26:25.890Z,54.80
2022-08-02T19:28:28.394Z,54.83
2022-08-02T19:30:30.437Z,55.23
2022-08-02T19:32:42.298Z,55.27
2022-08-02T19:34:56.278Z,55.17
2022-08-02T19:36:58.211Z,55.35
2022-08-02T19:39:00.865Z,55.97
2022-08-02T19:41:03.133Z,55.76
2022-08-02T19:44:23.730Z,56.02
2022-08-02T19:45:49.228Z,56.41
2022-08-02T19:47:54.333Z,56.73
2022-08-02T19:49:57.147Z,56.93
2022-08-02T19:51:59.330Z,57.23
2022-08-02T19:54:01.302Z,57.17
2022-08-02T19:56:03.951Z,57.32
2022-08-02T19:58:06.299Z,57.04
2022-08-02T20:00:11.746Z,57.09
2022-08-02T20:02:15.965Z,57.17
2022-08-02T20:04:23.003Z,56.91
2022-08-02T20:06:45.391Z,57.08
2022-08-02T20:08:56.967Z,57.23
2022-08-02T20:10:59.451Z,57.56
2022-08-02T20:13:01.416Z,57.32
2022-08-02T20:15:14.374Z,57.46
2022-08-02T20:17:20.643Z,57.34
2022-08-02T20:19:23.158Z,57.50
2022-08-02T20:21:35.398Z,57.50
2022-08-02T20:23:38.641Z,57.42
2022-08-02T20:25:45.170Z,57.67
2022-08-02T20:27:51.200Z,57.80
2022-08-02T20:29:53.596Z,58.16
2022-08-02T20:31:55.547Z,58.24
2022-08-02T20:33:58.013Z,58.39
2022-08-02T20:36:01.838Z,58.81
2022-08-02T20:38:04.755Z,58.85
2022-08-02T20:40:07.780Z,59.08
2022-08-02T20:42:23.452Z,59.19
2022-08-02T20:44:30.683Z,59.13
2022-08-02T20:46:33.247Z,59.21
2022-08-02T20:48:37.040Z,59.03
2022-08-02T20:50:56.960Z,59.41
2022-08-02T20:53:01.123Z,59.45
2022-08-02T20:55:03.464Z,59.90
2022-08-02T20:57:05.379Z,60.03
2022-08-02T20:59:15.480Z,60.04
2022-08-02T21:01:18.150Z,60.52
2022-08-02T21:03:23.682Z,60.82
2022-08-02T21:05:26.682Z,60.58
2022-08-02T21:07:47.794Z,60.96
2022-08-02T21:09:53.733Z,60.76
2022-08-02T21:11:56.336Z,60.95
2022-08-02T21:14:07.786Z,61.43
2022-08-02T21:16:16.347Z,61.70
2022-08-02T21:18:34.650Z,62.22
2022-08-02T21:20:44.292Z,61.82
2022-08-02T21:22:46.234Z,61.96
2022-08-02T21:24:48.225Z,61.98
2022-08-02T21:26:50.192Z,61.98
2022-08-02T21:28:54.339Z,62.08
2022-08-02T21:30:57.140Z,62.05
2022-08-02T21:32:59.156Z,62.48
2022-08-02T21:35:02.678Z,62.77
2022-08-02T21:37:10.049Z,62.69
2022-08-02T21:39:12.452Z,62.91
2022-08-02T21:41:14.407Z,63.17
2022-08-02T21:45:53.889Z,63.14
2022-08-02T21:47:57.661Z,63.58
2022-08-02T21:50:10.521Z,63.45
2022-08-02T21:52:19.909Z,63.61
2022-08-02T21:54:27.347Z,63.51
2022-08-02T21:56:30.172Z,63.63
2022-08-02T21:58:33.952Z,63.58
2022-08-02T22:00:36.616Z,63.72
2022-08-02T22:02:38.624Z,63.60
2022-08-02T22:04:47.512Z,63.70
2022-08-02T22:06:50.253Z,63.84
2022-08-02T22:08:52.525Z,64.07
2022-08-02T22:11:03.582Z,64.32
2022-08-02T22:13:05.697Z,64.26
2022-08-02T22:15:16.995Z,64.42
2022-08-02T22:17:51.597Z,64.19
2022-08-02T22:19:54.371Z,64.26
2022-08-02T22:21:59.212Z,63.98
2022-08-02T22:24:01.365Z,63.94
2022-08-02T22:26:03.550Z,63.88
2022-08-02T22:28:37.776Z,63.82
2022-08-02T22:30:40.727Z,63.82
2022-08-02T22:33:01.409Z,63.66
2022-08-02T22:35:17.108Z,63.70
2022-08-02T22:38:16.884Z,64.17
2022-08-02T22:40:06.045Z,64.51
2022-08-02T22:42:05.710Z,64.37
2022-08-02T22:44:09.069Z,64.65
2022-08-02T22:46:15.255Z,64.72
2022-08-02T22:48:24.110Z,64.79
2022-08-02T22:50:27.751Z,64.86
2022-08-02T22:52:29.718Z,64.76
2022-08-02T22:54:31.667Z,65.18
2022-08-02T22:56:34.063Z,65.83
2022-08-02T22:58:58.609Z,53.08
2022-08-02T22:59:07.507Z,65.72
2022-08-02T23:00:59.516Z,65.57
2022-08-02T23:03:01.556Z,65.57
2022-08-02T23:05:06.374Z,66.02
2022-08-02T23:07:08.422Z,66.00
2022-08-02T23:09:10.456Z,66.31
2022-08-02T23:11:14.311Z,66.33
2022-08-02T23:13:16.488Z,66.58
2022-08-02T23:15:18.753Z,66.44
2022-08-02T23:17:39.483Z,66.48
2022-08-02T23:19:53.371Z,66.32
2022-08-02T23:22:02.858Z,66.50
2022-08-02T23:24:05.503Z,66.57
2022-08-02T23:26:07.687Z,66.71
2022-08-02T23:28:12.092Z,66.60
2022-08-02T23:30:14.248Z,66.86
2022-08-02T23:32:16.818Z,66.96
2022-08-02T23:34:19.049Z,67.16
2022-08-02T23:36:21.429Z,67.89
2022-08-02T23:38:27.296Z,67.92
2022-08-02T23:40:40.602Z,67.50
2022-08-02T23:42:49.793Z,67.68
2022-08-02T23:44:52.770Z,67.37
2022-08-02T23:46:55.886Z,67.57
2022-08-02T23:48:57.869Z,67.65
2022-08-02T23:51:00.029Z,67.94
2022-08-02T23:53:02.220Z,68.14
2022-08-02T23:55:04.522Z,67.96
2022-08-02T23:57:20.140Z,67.89
2022-08-02T23:59:23.615Z,68.14
